Dati Storici

Data ora Umidita' aria (%) Temperatura aria (°C) Rad globale (W/m²) Gonioanemometro (°) Tacoanemometro (m/s) Pioggia (mm)
28-06-2020 02:50 97.7 % 22.04 133.151 -0.011 0 0
28-06-2020 02:40 97.6 % 22.221 5.212 -0.013 0 0
28-06-2020 02:30 97.6 % 22.318 52.449 0.386 0 0
28-06-2020 02:20 97.6 % 22.391 322.365 0.271 0 0
28-06-2020 02:10 97.6 % 22.459 14.703 0.506 0 0
28-06-2020 02:00 97.6 % 22.62 86.874 -0.019 0 0
28-06-2020 01:50 97.6 % 22.676 51.765 -0.02 0 0
28-06-2020 01:40 97.6 % 22.942 40.126 -0.019 0 0
28-06-2020 01:30 97.6 % 23.235 242.514 -0.022 0 0
28-06-2020 01:20 97.6 % 23.243 55.189 -0.019 0 0
28-06-2020 01:10 97.5 % 23.201 345.665 -0.022 0 0
28-06-2020 01:00 97.5 % 23.207 294.687 -0.021 0 0
28-06-2020 00:50 97 % 23.399 19.407 1.433 0 0
28-06-2020 00:40 94.6 % 24.177 159.941 -0.025 0 0
28-06-2020 00:30 94.8 % 24.196 188.372 -0.025 0 0
28-06-2020 00:20 96.2 % 24.109 228.562 -0.028 0 0
28-06-2020 00:10 96.7 % 24.027 170.649 -0.028 0 0
28-06-2020 00:00 95.3 % 23.865 135.005 -0.026 0 0
27-06-2020 23:50 95.2 % 24.092 118.498 -0.027 0 0
27-06-2020 23:40 94.3 % 24.041 201.582 -0.029 0 0

I dati sono presentati in modo automatico a scopo informativo. In seguito a verifica i dati possono subire modifiche o essere invalidati e non riportati negli archivi definitivi.